Lingle, Wyoming
Current Conditions -  °F | °C
As of 12:53 AM on Saturday 01 Nov 2014 (Local Time) from KTOR Reporting Station
Clear Clear  
Wind Chill: -2°   Ceiling: Unl
Heat Index:   Visibility: 10mi
Dew Point: -2°   Wind: 15mph
Humidity: 70%   Direction: 120°ESE
Pressure: 29.95"   Gusts: NA
Location:  42.14°N, 104.35°W
Report Text: KTOR 010653Z AUTO 12013KT 10SM CLR 03/M02 A2995 RMK AO2 SLP140 T00281022 401501017
Loading
Personal Weather Stations






























Interactive Weather Map
Tropical Storm Tracking
New forecast layout! Learn more

10-Day Weather Forecast

Advertisements
Track Severe Weather on mobile